Archival Weather

Chicago O'Hare International

Chicago, Illinois (KORD)

Report from: Sunday, January 21, 2024 6:51 PM CST
Current time: Wednesday, April 24, 2024 1:24 PM CDT

Current weather – Weather history – Daily summaries
Weather forecast

Temperature-6.7°C (19.9°F)
Wind chill-14.4°C (6.2°F)
Dew point-12.8°C (9.0°F)
Winds 13 kts (6.7 m/s, 15 mph) South (180°)
Wind gusts 20 kts (10.3 m/s, 23 mph)
Visibility10 mi. (16.1 km)
Clouds Ceiling: Broken clouds 18,000 ft. (5,486 m)
Broken clouds 24,000 ft. (7,315 m)
Altimeter30.39 in.Hg (1029 mB)
Relative humidity62 %
Density altitude-3,241 ft. (-988 m)
Sea-level pressure103.1 kPa (1031 mB, 30.43 in.Hg)
Remarks Automated weather observing station with precipitation discriminator
Flight conditions Visual Meteorological Conditions
Raw dataKORD 220051Z 18013G20KT 10SM BKN180 BKN240 M07/M13 A3039 RMK AO2 SLP305 T10671128
An error has occurred. This application may no longer respond until reloaded. Reload 🗙